logo dgac
Martes 23 de Julio del 2019
Buscar por aerodromo o helipuerto
Ingrese nombre de aeródromo, localidad o designador OACI:
METAR del 23-07-2019 a las 10:00 UTC
METAR SCBA 231000Z AUTO 31013KT CAVOK 02/M01 Q1020
Nan: AUTO
Viento: dirección 310 grados, velocidad 13 nudos
Visibilidad: 10 km o más,
    sin nubes bajo los 5.000 pies o bajo del MSA (Mínimo de Seguridad del Aeródromo),
    sin cumulonimbus, y sin fenómenos de tiempo significativo en el aeródromo o alrededores
Temperatura: 2 °C
Rocío: -1 °C
Humedad_relativa: 81%
Presión: 1020 hPa
METAR del 23-07-2019 a las 09:00 UTC
METAR SCBA 230900Z AUTO 31014KT CAVOK 02/M01 Q1019
Nan: AUTO
Viento: dirección 310 grados, velocidad 14 nudos
Visibilidad: 10 km o más,
    sin nubes bajo los 5.000 pies o bajo del MSA (Mínimo de Seguridad del Aeródromo),
    sin cumulonimbus, y sin fenómenos de tiempo significativo en el aeródromo o alrededores
Temperatura: 2 °C
Rocío: -1 °C
Humedad_relativa: 81%
Presión: 1019 hPa
METAR del 23-07-2019 a las 08:00 UTC
METAR SCBA 230800Z AUTO 31019KT CAVOK 02/M01 Q1018
Nan: AUTO
Viento: dirección 310 grados, velocidad 19 nudos
Visibilidad: 10 km o más,
    sin nubes bajo los 5.000 pies o bajo del MSA (Mínimo de Seguridad del Aeródromo),
    sin cumulonimbus, y sin fenómenos de tiempo significativo en el aeródromo o alrededores
Temperatura: 2 °C
Rocío: -1 °C
Humedad_relativa: 81%
Presión: 1018 hPa
METAR del 23-07-2019 a las 07:00 UTC
METAR SCBA 230700Z AUTO 31020KT CAVOK 02/M01 Q1017
Nan: AUTO
Viento: dirección 310 grados, velocidad 20 nudos
Visibilidad: 10 km o más,
    sin nubes bajo los 5.000 pies o bajo del MSA (Mínimo de Seguridad del Aeródromo),
    sin cumulonimbus, y sin fenómenos de tiempo significativo en el aeródromo o alrededores
Temperatura: 2 °C
Rocío: -1 °C
Humedad_relativa: 81%
Presión: 1017 hPa
METAR del 23-07-2019 a las 06:00 UTC
METAR SCBA 230600Z AUTO 31021KT CAVOK 03/M01 Q1017
Nan: AUTO
Viento: dirección 310 grados, velocidad 21 nudos
Visibilidad: 10 km o más,
    sin nubes bajo los 5.000 pies o bajo del MSA (Mínimo de Seguridad del Aeródromo),
    sin cumulonimbus, y sin fenómenos de tiempo significativo en el aeródromo o alrededores
Temperatura: 3 °C
Rocío: -1 °C
Humedad_relativa: 75%
Presión: 1017 hPa
METAR del 23-07-2019 a las 05:00 UTC
METAR SCBA 230500Z AUTO 31022KT CAVOK 03/M01 Q1017
Nan: AUTO
Viento: dirección 310 grados, velocidad 22 nudos
Visibilidad: 10 km o más,
    sin nubes bajo los 5.000 pies o bajo del MSA (Mínimo de Seguridad del Aeródromo),
    sin cumulonimbus, y sin fenómenos de tiempo significativo en el aeródromo o alrededores
Temperatura: 3 °C
Rocío: -1 °C
Humedad_relativa: 75%
Presión: 1017 hPa
METAR del 23-07-2019 a las 04:00 UTC
METAR SCBA 230400Z AUTO 31020KT 240V320 CAVOK 02/M01 Q1017
Nan: AUTO
Viento: dirección 310 grados, velocidad 20 nudos
Viento con dirección variable entre 240 y 320 grados
Visibilidad: 10 km o más,
    sin nubes bajo los 5.000 pies o bajo del MSA (Mínimo de Seguridad del Aeródromo),
    sin cumulonimbus, y sin fenómenos de tiempo significativo en el aeródromo o alrededores
Temperatura: 2 °C
Rocío: -1 °C
Humedad_relativa: 81%
Presión: 1017 hPa
METAR del 23-07-2019 a las 03:00 UTC
METAR SCBA 230300Z AUTO 31021KT CAVOK 02/M01 Q1017
Nan: AUTO
Viento: dirección 310 grados, velocidad 21 nudos
Visibilidad: 10 km o más,
    sin nubes bajo los 5.000 pies o bajo del MSA (Mínimo de Seguridad del Aeródromo),
    sin cumulonimbus, y sin fenómenos de tiempo significativo en el aeródromo o alrededores
Temperatura: 2 °C
Rocío: -1 °C
Humedad_relativa: 81%
Presión: 1017 hPa
METAR del 23-07-2019 a las 02:00 UTC
METAR SCBA 230200Z AUTO 31024KT 9999 02/M01 Q1017
Nan: AUTO
Viento: dirección 310 grados, velocidad 24 nudos
Visibilidad: 10 km o más
Temperatura: 2 °C
Rocío: -1 °C
Humedad_relativa: 81%
Presión: 1017 hPa
METAR del 23-07-2019 a las 01:00 UTC
METAR SCBA 230100Z AUTO 31020KT CAVOK 02/M01 Q1016
Nan: AUTO
Viento: dirección 310 grados, velocidad 20 nudos
Visibilidad: 10 km o más,
    sin nubes bajo los 5.000 pies o bajo del MSA (Mínimo de Seguridad del Aeródromo),
    sin cumulonimbus, y sin fenómenos de tiempo significativo en el aeródromo o alrededores
Temperatura: 2 °C
Rocío: -1 °C
Humedad_relativa: 81%
Presión: 1016 hPa